createdAt,value
2022-11-17T00:00:26.859Z,7.68
2022-11-17T00:03:29.512Z,7.56
2022-11-17T00:06:33.534Z,7.52
2022-11-17T00:09:36.154Z,7.65
2022-11-17T00:12:56.531Z,7.33
2022-11-17T00:15:59.145Z,7.33
2022-11-17T00:19:19.437Z,7.54
2022-11-17T00:22:24.465Z,7.64
2022-11-17T00:25:27.085Z,7.41
2022-11-17T00:28:29.708Z,7.73
2022-11-17T00:31:51.558Z,7.50
2022-11-17T00:34:54.229Z,7.62
2022-11-17T00:38:16.511Z,7.50
2022-11-17T00:41:19.116Z,7.26
2022-11-17T00:44:21.753Z,7.55
2022-11-17T00:47:24.672Z,7.57
2022-11-17T00:50:27.284Z,7.52
2022-11-17T00:53:31.320Z,7.51
2022-11-17T00:56:34.069Z,7.63
2022-11-17T00:59:36.727Z,7.26
2022-11-17T01:02:39.364Z,7.46
2022-11-17T01:05:41.968Z,7.35
2022-11-17T01:08:46.591Z,7.55
2022-11-17T01:11:51.257Z,7.38
2022-11-17T01:14:53.859Z,6.81
2022-11-17T01:17:56.506Z,7.05
2022-11-17T01:21:04.938Z,7.31
2022-11-17T01:24:11.095Z,7.46
2022-11-17T01:27:13.989Z,7.25
2022-11-17T01:30:17.730Z,7.05
2022-11-17T01:33:20.352Z,7.09
2022-11-17T01:36:24.770Z,7.21
2022-11-17T01:39:30.255Z,7.28
2022-11-17T01:42:32.923Z,7.03
2022-11-17T01:45:35.578Z,7.14
2022-11-17T01:48:38.239Z,7.30
2022-11-17T01:51:44.668Z,6.99
2022-11-17T01:54:49.761Z,7.05
2022-11-17T01:57:56.779Z,6.83
2022-11-17T02:00:59.424Z,6.73
2022-11-17T02:04:02.495Z,6.89
2022-11-17T02:07:10.986Z,6.95
2022-11-17T02:10:15.174Z,6.78
2022-11-17T02:13:17.858Z,6.74
2022-11-17T02:16:20.476Z,6.75
2022-11-17T02:19:26.200Z,6.99
2022-11-17T02:22:58.152Z,6.82
2022-11-17T02:26:22.366Z,7.21
2022-11-17T02:29:31.268Z,7.12
2022-11-17T02:32:46.925Z,7.05
2022-11-17T02:35:59.411Z,7.16
2022-11-17T02:39:11.316Z,7.16
2022-11-17T02:42:42.808Z,7.06
2022-11-17T02:45:52.044Z,6.94
2022-11-17T02:48:59.334Z,6.82
2022-11-17T02:52:03.443Z,6.83
2022-11-17T02:55:08.969Z,6.61
2022-11-17T02:58:12.705Z,6.74
2022-11-17T03:01:35.242Z,6.88
2022-11-17T03:04:47.913Z,6.91
2022-11-17T03:08:04.554Z,6.73
2022-11-17T03:11:09.736Z,6.60
2022-11-17T03:14:21.228Z,6.88
2022-11-17T03:17:31.470Z,6.82
2022-11-17T03:20:40.237Z,6.80
2022-11-17T03:23:47.962Z,6.90
2022-11-17T03:26:55.836Z,6.88
2022-11-17T03:30:02.867Z,6.87
2022-11-17T03:33:15.080Z,6.92
2022-11-17T03:36:23.338Z,6.86
2022-11-17T03:39:31.216Z,6.60
2022-11-17T03:42:38.146Z,6.91
2022-11-17T03:45:44.342Z,6.89
2022-11-17T03:48:54.719Z,6.84
2022-11-17T03:51:58.337Z,6.87
2022-11-17T03:55:01.734Z,6.78
2022-11-17T03:58:08.000Z,6.61
2022-11-17T04:01:11.821Z,6.44
2022-11-17T04:04:17.946Z,6.60
2022-11-17T04:07:20.596Z,6.76
2022-11-17T04:10:25.714Z,6.64
2022-11-17T04:13:45.674Z,6.65
2022-11-17T04:16:48.312Z,6.73
2022-11-17T04:19:52.258Z,6.51
2022-11-17T04:23:07.924Z,6.51
2022-11-17T04:26:29.231Z,6.54
2022-11-17T04:29:32.184Z,6.04
2022-11-17T04:32:34.851Z,6.32
2022-11-17T04:35:38.966Z,6.35
2022-11-17T04:38:43.514Z,6.68
2022-11-17T04:41:57.132Z,6.39
2022-11-17T04:44:59.728Z,6.50
2022-11-17T04:48:02.425Z,6.48
2022-11-17T04:51:06.740Z,6.18
2022-11-17T04:54:10.752Z,6.12
2022-11-17T04:57:13.347Z,6.29
2022-11-17T05:00:17.488Z,6.07
2022-11-17T05:03:20.083Z,6.45
2022-11-17T05:06:25.915Z,6.45
2022-11-17T05:09:28.553Z,5.98
2022-11-17T05:12:48.960Z,5.88
2022-11-17T05:16:11.271Z,6.21
2022-11-17T05:19:17.773Z,6.11
2022-11-17T05:22:53.092Z,6.08
2022-11-17T05:25:55.699Z,6.35
2022-11-17T05:29:00.225Z,6.08
2022-11-17T05:32:02.834Z,6.20
2022-11-17T05:35:06.192Z,6.54
2022-11-17T05:38:10.216Z,6.26
2022-11-17T05:41:12.844Z,6.27
2022-11-17T05:44:15.464Z,6.38
2022-11-17T05:47:18.082Z,6.20
2022-11-17T05:50:20.716Z,6.47
2022-11-17T05:53:25.342Z,6.31
2022-11-17T05:56:38.145Z,6.08
2022-11-17T05:59:44.900Z,6.09
2022-11-17T06:02:51.009Z,6.04
2022-11-17T06:05:54.489Z,5.94
2022-11-17T06:08:58.476Z,5.79
2022-11-17T06:12:05.626Z,6.25
2022-11-17T06:15:09.672Z,6.28
2022-11-17T06:18:17.074Z,6.47
2022-11-17T06:21:19.752Z,6.05
2022-11-17T06:24:24.355Z,6.07
2022-11-17T06:27:27.559Z,6.06
2022-11-17T06:30:30.853Z,5.79
2022-11-17T06:33:35.333Z,6.19
2022-11-17T06:36:38.216Z,6.08
2022-11-17T06:39:42.188Z,6.44
2022-11-17T06:43:02.427Z,6.31
2022-11-17T06:46:06.681Z,5.82
2022-11-17T06:49:09.393Z,5.74
2022-11-17T06:52:12.039Z,5.66
2022-11-17T06:55:16.218Z,5.94
2022-11-17T06:58:18.840Z,6.24
2022-11-17T07:01:21.504Z,5.92
2022-11-17T07:04:24.143Z,6.19
2022-11-17T07:07:26.854Z,6.16
2022-11-17T07:10:31.891Z,6.09
2022-11-17T07:13:35.424Z,6.11
2022-11-17T07:16:38.019Z,5.73
2022-11-17T07:19:41.099Z,6.03
2022-11-17T07:22:43.976Z,6.13
2022-11-17T07:25:47.936Z,6.04
2022-11-17T07:28:50.532Z,6.15
2022-11-17T07:31:53.175Z,6.29
2022-11-17T07:34:55.809Z,6.46
2022-11-17T07:38:01.227Z,6.53
2022-11-17T07:41:05.531Z,6.05
2022-11-17T07:44:08.183Z,6.37
2022-11-17T07:47:12.170Z,5.87
2022-11-17T07:50:16.666Z,5.67
2022-11-17T07:53:19.309Z,5.74
2022-11-17T07:56:23.271Z,5.95
2022-11-17T07:59:25.975Z,5.98
2022-11-17T08:02:29.010Z,6.24
2022-11-17T08:05:32.192Z,6.07
2022-11-17T08:08:35.607Z,6.32
2022-11-17T08:11:39.824Z,6.06
2022-11-17T08:14:42.475Z,6.07
2022-11-17T08:17:45.090Z,6.26
2022-11-17T08:20:47.729Z,6.38
2022-11-17T08:23:51.837Z,6.33
2022-11-17T08:26:55.846Z,6.15
2022-11-17T08:29:58.448Z,6.25
2022-11-17T08:33:01.146Z,6.38
2022-11-17T08:36:06.965Z,5.98
2022-11-17T08:39:09.728Z,6.43
2022-11-17T08:42:13.709Z,6.55
2022-11-17T08:45:16.394Z,6.66
2022-11-17T08:48:19.053Z,6.26
2022-11-17T08:51:21.758Z,6.19
2022-11-17T08:54:24.380Z,6.14
2022-11-17T08:57:30.509Z,6.19
2022-11-17T09:00:33.183Z,6.20
2022-11-17T09:03:35.828Z,6.11
2022-11-17T09:06:38.862Z,6.28
2022-11-17T09:09:41.502Z,6.32
2022-11-17T09:12:45.483Z,6.11
2022-11-17T09:15:48.088Z,6.33
2022-11-17T09:18:56.557Z,6.20
2022-11-17T09:21:59.794Z,6.29
2022-11-17T09:25:02.469Z,6.14
2022-11-17T09:28:06.500Z,6.14
2022-11-17T09:31:10.347Z,6.06
2022-11-17T09:34:13.138Z,6.30
2022-11-17T09:37:15.752Z,6.05
2022-11-17T09:40:20.946Z,5.94
2022-11-17T09:43:28.740Z,6.04
2022-11-17T09:46:41.991Z,6.08
2022-11-17T09:49:58.641Z,6.15
2022-11-17T09:53:06.466Z,6.02
2022-11-17T09:56:11.488Z,6.14
2022-11-17T09:59:19.169Z,6.06
2022-11-17T10:02:21.878Z,6.20
2022-11-17T10:05:32.149Z,6.32
2022-11-17T10:08:40.978Z,6.40
2022-11-17T10:11:45.140Z,6.32
2022-11-17T10:14:49.876Z,6.18
2022-11-17T10:17:52.924Z,6.25
2022-11-17T10:20:55.555Z,6.43
2022-11-17T10:23:59.772Z,6.13
2022-11-17T10:27:03.228Z,6.10
2022-11-17T10:30:21.004Z,6.20
2022-11-17T10:33:38.790Z,6.31
2022-11-17T10:36:48.884Z,6.19
2022-11-17T10:39:51.544Z,6.25
2022-11-17T10:42:58.155Z,6.36
2022-11-17T10:46:05.922Z,6.66
2022-11-17T10:49:25.474Z,6.25
2022-11-17T10:52:28.105Z,6.28
2022-11-17T10:55:34.290Z,6.46
2022-11-17T10:58:57.520Z,6.20
2022-11-17T11:02:27.115Z,6.27
2022-11-17T11:05:29.743Z,6.58
2022-11-17T11:08:40.470Z,6.43
2022-11-17T11:11:45.522Z,6.54
2022-11-17T11:14:52.199Z,6.63
2022-11-17T11:17:56.143Z,6.38
2022-11-17T11:21:09.803Z,6.15
2022-11-17T11:24:20.382Z,6.08
2022-11-17T11:27:38.572Z,6.32
2022-11-17T11:31:00.183Z,6.34
2022-11-17T11:34:22.279Z,6.32
2022-11-17T11:37:30.708Z,6.41
2022-11-17T11:40:39.115Z,6.28
2022-11-17T11:43:52.073Z,6.17
2022-11-17T11:47:01.417Z,6.27
2022-11-17T11:50:14.321Z,6.18
2022-11-17T11:53:23.193Z,6.31
2022-11-17T11:56:32.614Z,6.27
2022-11-17T11:59:41.594Z,6.10
2022-11-17T12:02:49.597Z,6.19
2022-11-17T12:06:24.487Z,6.37
2022-11-17T12:09:47.324Z,5.83
2022-11-17T12:12:50.567Z,6.03
2022-11-17T12:16:13.297Z,5.81
2022-11-17T12:19:48.451Z,5.94
2022-11-17T12:23:06.849Z,5.98
2022-11-17T12:26:22.317Z,5.96
2022-11-17T12:29:30.674Z,5.93
2022-11-17T12:32:54.865Z,6.15
2022-11-17T12:36:17.999Z,6.24
2022-11-17T12:40:09.620Z,5.84
2022-11-17T12:43:24.416Z,5.75
2022-11-17T12:46:28.456Z,5.91
2022-11-17T12:49:38.356Z,5.94
2022-11-17T12:52:52.735Z,5.60
2022-11-17T12:56:21.968Z,5.47
2022-11-17T12:59:52.821Z,5.60
2022-11-17T13:03:06.403Z,5.58
2022-11-17T13:06:34.419Z,5.66
2022-11-17T13:09:34.783Z,5.72
2022-11-17T13:12:37.440Z,5.47
2022-11-17T13:15:43.246Z,5.57
2022-11-17T13:18:46.159Z,5.69
2022-11-17T13:21:48.789Z,5.75
2022-11-17T13:29:08.436Z,5.69
2022-11-17T13:32:21.291Z,5.75
2022-11-17T13:35:26.295Z,5.67
2022-11-17T13:38:28.922Z,5.61
2022-11-17T13:41:38.371Z,5.43
2022-11-17T13:44:41.082Z,5.33
2022-11-17T13:47:47.793Z,5.70
2022-11-17T13:50:50.425Z,5.46
2022-11-17T13:53:55.968Z,5.36
2022-11-17T13:57:04.766Z,5.43
2022-11-17T14:00:17.116Z,5.34
2022-11-17T14:03:33.665Z,5.39
2022-11-17T14:06:55.852Z,5.51
2022-11-17T14:10:13.120Z,5.67
2022-11-17T14:13:22.079Z,5.47
2022-11-17T14:16:27.557Z,5.69
2022-11-17T14:19:35.189Z,5.75
2022-11-17T14:22:37.851Z,5.59
2022-11-17T14:25:43.453Z,5.56
2022-11-17T14:28:46.264Z,5.54
2022-11-17T14:31:48.930Z,5.68
2022-11-17T14:34:52.908Z,5.60
2022-11-17T14:37:56.091Z,5.59
2022-11-17T14:40:58.875Z,5.53
2022-11-17T14:44:01.512Z,5.39
2022-11-17T14:47:04.285Z,5.44
2022-11-17T14:50:13.064Z,5.33
2022-11-17T14:53:16.018Z,5.16
2022-11-17T14:56:20.466Z,5.45
2022-11-17T14:59:23.105Z,5.44
2022-11-17T15:02:25.948Z,5.37
2022-11-17T15:05:29.916Z,5.36
2022-11-17T15:08:32.554Z,5.39
2022-11-17T15:11:39.297Z,5.25
2022-11-17T15:14:42.166Z,5.24
2022-11-17T15:17:45.096Z,5.54
2022-11-17T15:20:49.121Z,5.65
2022-11-17T15:23:52.131Z,5.77
2022-11-17T15:26:54.776Z,5.51
2022-11-17T15:29:57.477Z,5.38
2022-11-17T15:33:01.124Z,5.55
2022-11-17T15:36:06.817Z,5.33
2022-11-17T15:39:09.761Z,5.24
2022-11-17T15:42:12.379Z,5.24
2022-11-17T15:45:15.608Z,5.25
2022-11-17T15:48:18.943Z,5.43
2022-11-17T15:51:24.360Z,5.22
2022-11-17T15:54:26.980Z,5.32
2022-11-17T15:57:29.591Z,5.29
2022-11-17T16:00:34.372Z,5.55
2022-11-17T16:03:37.084Z,5.39
2022-11-17T16:06:42.739Z,5.41
2022-11-17T16:09:49.150Z,5.19
2022-11-17T16:12:53.061Z,5.11
2022-11-17T16:15:55.908Z,5.28
2022-11-17T16:18:58.596Z,5.38
2022-11-17T16:22:02.606Z,5.31
2022-11-17T16:25:07.184Z,5.49
2022-11-17T16:28:10.786Z,5.51
2022-11-17T16:31:16.327Z,5.10
2022-11-17T16:34:19.133Z,5.28
2022-11-17T16:37:23.098Z,5.14
2022-11-17T16:40:25.704Z,5.14
2022-11-17T16:43:28.382Z,5.29
2022-11-17T16:46:32.574Z,5.39
2022-11-17T16:49:36.109Z,5.45
2022-11-17T16:52:40.061Z,5.16
2022-11-17T16:55:42.721Z,5.34
2022-11-17T16:58:45.345Z,5.33
2022-11-17T17:01:48.465Z,5.15
2022-11-17T17:04:51.079Z,5.11
2022-11-17T17:07:55.061Z,5.12
2022-11-17T17:11:02.654Z,5.24
2022-11-17T17:14:08.190Z,5.34
2022-11-17T17:17:10.828Z,5.12
2022-11-17T17:20:13.444Z,5.28
2022-11-17T17:23:17.463Z,5.35
2022-11-17T17:26:22.318Z,5.37
2022-11-17T17:29:24.977Z,5.34
2022-11-17T17:32:27.616Z,5.28
2022-11-17T17:35:30.250Z,5.22
2022-11-17T17:38:34.422Z,5.41
2022-11-17T17:41:40.813Z,5.19
2022-11-17T17:44:43.459Z,5.42
2022-11-17T17:47:46.082Z,5.42
2022-11-17T17:50:49.117Z,5.46
2022-11-17T17:53:53.663Z,5.32
2022-11-17T17:56:57.624Z,5.34
2022-11-17T18:00:00.335Z,5.32
2022-11-17T18:03:03.000Z,5.41
2022-11-17T18:06:06.482Z,5.44
2022-11-17T18:09:14.343Z,5.50
2022-11-17T18:12:17.448Z,5.51
2022-11-17T18:15:20.100Z,5.40
2022-11-17T18:18:22.757Z,5.41
2022-11-17T18:21:25.771Z,5.29
2022-11-17T18:24:29.750Z,5.11
2022-11-17T18:27:32.364Z,5.41
2022-11-17T18:30:35.001Z,5.42
2022-11-17T18:33:38.269Z,5.07
2022-11-17T18:36:40.949Z,5.00
2022-11-17T18:39:44.937Z,5.06
2022-11-17T18:42:47.562Z,5.12
2022-11-17T18:45:50.191Z,5.34
2022-11-17T18:48:53.353Z,5.39
2022-11-17T18:51:55.952Z,5.58
2022-11-17T18:55:00.798Z,5.61
2022-11-17T18:58:03.406Z,5.40
2022-11-17T19:01:08.763Z,5.07
2022-11-17T19:04:13.501Z,5.08
2022-11-17T19:07:16.251Z,5.31
2022-11-17T19:10:21.255Z,5.41
2022-11-17T19:13:24.201Z,5.16
2022-11-17T19:16:27.423Z,5.13
2022-11-17T19:19:30.021Z,5.18
2022-11-17T19:22:32.631Z,5.11
2022-11-17T19:25:38.998Z,5.25
2022-11-17T19:28:41.977Z,4.89
2022-11-17T19:31:44.846Z,4.72
2022-11-17T19:34:47.506Z,4.78
2022-11-17T19:37:50.236Z,4.74
2022-11-17T19:40:54.206Z,4.92
2022-11-17T19:43:58.501Z,5.04
2022-11-17T19:47:01.121Z,4.96
2022-11-17T19:50:03.822Z,5.10
2022-11-17T19:53:06.444Z,4.90
2022-11-17T19:56:10.453Z,4.85
2022-11-17T19:59:16.482Z,4.71
2022-11-17T20:02:19.545Z,4.84
2022-11-17T20:05:22.226Z,4.63
2022-11-17T20:08:24.848Z,4.80
2022-11-17T20:11:29.821Z,4.46
2022-11-17T20:14:33.068Z,4.38
2022-11-17T20:17:35.726Z,4.30
2022-11-17T20:20:38.344Z,4.71
2022-11-17T20:23:41.125Z,4.54
2022-11-17T20:26:46.220Z,4.54
2022-11-17T20:29:48.900Z,4.59
2022-11-17T20:32:51.529Z,4.28
2022-11-17T20:35:54.157Z,4.47
2022-11-17T20:38:58.197Z,4.17
2022-11-17T20:42:02.184Z,4.41
2022-11-17T20:45:05.220Z,4.24
2022-11-17T20:48:08.187Z,4.33
2022-11-17T20:51:12.589Z,4.34
2022-11-17T20:54:15.353Z,4.07
2022-11-17T20:57:19.348Z,4.36
2022-11-17T21:00:21.975Z,4.33
2022-11-17T21:03:26.742Z,4.44
2022-11-17T21:06:29.576Z,4.13
2022-11-17T21:09:32.276Z,4.08
2022-11-17T21:12:36.231Z,3.91
2022-11-17T21:15:38.904Z,4.18
2022-11-17T21:18:47.397Z,4.12
2022-11-17T21:21:50.790Z,3.93
2022-11-17T21:24:53.421Z,4.18
2022-11-17T21:27:59.313Z,4.17
2022-11-17T21:31:07.656Z,3.73
2022-11-17T21:34:15.907Z,4.12
2022-11-17T21:37:18.543Z,4.20
2022-11-17T21:40:21.199Z,4.11
2022-11-17T21:43:25.184Z,4.04
2022-11-17T21:46:31.018Z,4.33
2022-11-17T21:49:33.650Z,4.08
2022-11-17T21:52:36.436Z,4.12
2022-11-17T21:55:39.188Z,3.92
2022-11-17T21:58:43.160Z,3.94
2022-11-17T22:01:45.848Z,3.89
2022-11-17T22:04:48.461Z,4.10
2022-11-17T22:07:51.062Z,4.15
2022-11-17T22:10:53.712Z,3.89
2022-11-17T22:13:58.375Z,4.19
2022-11-17T22:17:01.612Z,4.27
2022-11-17T22:20:05.060Z,4.15
2022-11-17T22:23:07.684Z,4.27
2022-11-17T22:26:11.978Z,4.22
2022-11-17T22:29:18.268Z,3.97
2022-11-17T22:32:21.225Z,4.19
2022-11-17T22:35:23.892Z,4.01
2022-11-17T22:38:29.063Z,3.71
2022-11-17T22:41:31.899Z,3.65
2022-11-17T22:44:35.847Z,3.80
2022-11-17T22:47:41.101Z,3.84
2022-11-17T22:50:43.819Z,3.43
2022-11-17T22:53:46.407Z,3.77
2022-11-17T22:56:49.101Z,3.99
2022-11-17T22:59:53.095Z,4.06
2022-11-17T23:02:55.882Z,4.15
2022-11-17T23:06:02.054Z,4.20
2022-11-17T23:09:04.985Z,3.81
2022-11-17T23:12:07.894Z,3.94
2022-11-17T23:15:12.045Z,4.11
2022-11-17T23:18:14.728Z,4.20
2022-11-17T23:21:17.341Z,4.08
2022-11-17T23:24:20.039Z,4.20
2022-11-17T23:27:22.627Z,3.93
2022-11-17T23:30:26.629Z,4.03
2022-11-17T23:33:34.447Z,3.99
2022-11-17T23:36:37.126Z,4.09
2022-11-17T23:39:39.764Z,3.98
2022-11-17T23:42:43.343Z,4.19
2022-11-17T23:45:47.414Z,3.97
2022-11-17T23:48:50.291Z,4.03
2022-11-17T23:51:52.950Z,3.64
2022-11-17T23:54:55.632Z,3.76
2022-11-17T23:57:58.409Z,3.79
